sensor_id;sensor_type;location;lat;lon;timestamp;P1;durP1;ratioP1;P2;durP2;ratioP2
2408;SDS011;8463;48.094;7.970;2022-12-24T00:00:35;2.13;;;1.10;;
2408;SDS011;8463;48.094;7.970;2022-12-24T00:03:01;3.57;;;1.10;;
2408;SDS011;8463;48.094;7.970;2022-12-24T00:05:27;1.50;;;1.00;;
2408;SDS011;8463;48.094;7.970;2022-12-24T00:07:53;1.97;;;1.00;;
2408;SDS011;8463;48.094;7.970;2022-12-24T00:10:18;2.40;;;1.00;;
2408;SDS011;8463;48.094;7.970;2022-12-24T00:12:44;4.33;;;0.90;;
2408;SDS011;8463;48.094;7.970;2022-12-24T00:15:10;3.13;;;1.07;;
2408;SDS011;8463;48.094;7.970;2022-12-24T00:17:35;2.50;;;0.93;;
2408;SDS011;8463;48.094;7.970;2022-12-24T00:20:01;5.10;;;1.17;;
2408;SDS011;8463;48.094;7.970;2022-12-24T00:22:28;4.10;;;1.07;;
2408;SDS011;8463;48.094;7.970;2022-12-24T00:24:53;5.03;;;1.57;;
2408;SDS011;8463;48.094;7.970;2022-12-24T00:27:19;3.10;;;1.17;;
2408;SDS011;8463;48.094;7.970;2022-12-24T00:29:45;3.83;;;1.10;;
2408;SDS011;8463;48.094;7.970;2022-12-24T00:32:10;2.50;;;1.13;;
2408;SDS011;8463;48.094;7.970;2022-12-24T00:34:36;2.43;;;1.00;;
2408;SDS011;8463;48.094;7.970;2022-12-24T00:37:04;3.70;;;0.97;;
2408;SDS011;8463;48.094;7.970;2022-12-24T00:39:31;4.37;;;1.00;;
2408;SDS011;8463;48.094;7.970;2022-12-24T00:41:57;2.20;;;1.27;;
2408;SDS011;8463;48.094;7.970;2022-12-24T00:44:22;2.17;;;1.37;;
2408;SDS011;8463;48.094;7.970;2022-12-24T00:46:48;3.40;;;1.30;;
2408;SDS011;8463;48.094;7.970;2022-12-24T00:49:15;2.30;;;1.17;;
2408;SDS011;8463;48.094;7.970;2022-12-24T00:51:41;1.50;;;1.07;;
2408;SDS011;8463;48.094;7.970;2022-12-24T00:54:07;2.07;;;1.03;;
2408;SDS011;8463;48.094;7.970;2022-12-24T00:56:40;2.97;;;1.37;;
2408;SDS011;8463;48.094;7.970;2022-12-24T00:59:05;4.13;;;1.43;;
2408;SDS011;8463;48.094;7.970;2022-12-24T01:01:31;2.93;;;0.83;;
2408;SDS011;8463;48.094;7.970;2022-12-24T01:03:57;1.80;;;1.17;;
2408;SDS011;8463;48.094;7.970;2022-12-24T01:06:41;1.70;;;0.90;;
2408;SDS011;8463;48.094;7.970;2022-12-24T01:09:07;3.50;;;1.50;;
2408;SDS011;8463;48.094;7.970;2022-12-24T01:11:32;2.90;;;1.00;;
2408;SDS011;8463;48.094;7.970;2022-12-24T01:13:58;3.00;;;1.17;;
2408;SDS011;8463;48.094;7.970;2022-12-24T01:16:23;2.07;;;1.20;;
2408;SDS011;8463;48.094;7.970;2022-12-24T01:18:49;2.13;;;0.97;;
2408;SDS011;8463;48.094;7.970;2022-12-24T01:21:15;3.03;;;0.90;;
2408;SDS011;8463;48.094;7.970;2022-12-24T01:23:40;3.63;;;1.33;;
2408;SDS011;8463;48.094;7.970;2022-12-24T01:26:06;1.77;;;0.93;;
2408;SDS011;8463;48.094;7.970;2022-12-24T01:28:32;6.53;;;1.70;;
2408;SDS011;8463;48.094;7.970;2022-12-24T01:30:58;1.17;;;0.93;;
2408;SDS011;8463;48.094;7.970;2022-12-24T01:33:29;3.93;;;1.60;;
2408;SDS011;8463;48.094;7.970;2022-12-24T01:35:54;2.63;;;2.43;;
2408;SDS011;8463;48.094;7.970;2022-12-24T01:38:20;3.97;;;1.13;;
2408;SDS011;8463;48.094;7.970;2022-12-24T01:40:45;3.07;;;1.60;;
2408;SDS011;8463;48.094;7.970;2022-12-24T01:43:30;1.50;;;0.83;;
2408;SDS011;8463;48.094;7.970;2022-12-24T01:46:00;5.90;;;2.40;;
2408;SDS011;8463;48.094;7.970;2022-12-24T01:51:04;2.93;;;1.00;;
2408;SDS011;8463;48.094;7.970;2022-12-24T01:53:30;2.03;;;1.10;;
2408;SDS011;8463;48.094;7.970;2022-12-24T01:55:59;4.87;;;1.53;;
2408;SDS011;8463;48.094;7.970;2022-12-24T01:58:26;1.50;;;1.23;;
2408;SDS011;8463;48.094;7.970;2022-12-24T02:00:51;1.50;;;1.10;;
2408;SDS011;8463;48.094;7.970;2022-12-24T02:03:17;1.13;;;0.90;;
2408;SDS011;8463;48.094;7.970;2022-12-24T02:08:12;2.10;;;1.33;;
2408;SDS011;8463;48.094;7.970;2022-12-24T02:10:38;2.57;;;0.90;;
2408;SDS011;8463;48.094;7.970;2022-12-24T02:13:04;2.90;;;1.17;;
2408;SDS011;8463;48.094;7.970;2022-12-24T02:15:34;2.50;;;1.13;;
2408;SDS011;8463;48.094;7.970;2022-12-24T02:20:57;5.13;;;1.40;;
2408;SDS011;8463;48.094;7.970;2022-12-24T02:32:22;1.77;;;1.10;;
2408;SDS011;8463;48.094;7.970;2022-12-24T02:35:04;2.53;;;1.40;;
2408;SDS011;8463;48.094;7.970;2022-12-24T02:37:37;4.33;;;1.40;;
2408;SDS011;8463;48.094;7.970;2022-12-24T02:40:11;3.60;;;1.07;;
2408;SDS011;8463;48.094;7.970;2022-12-24T02:42:40;1.73;;;1.00;;
2408;SDS011;8463;48.094;7.970;2022-12-24T02:45:19;2.10;;;1.23;;
2408;SDS011;8463;48.094;7.970;2022-12-24T02:47:47;5.10;;;2.03;;
2408;SDS011;8463;48.094;7.970;2022-12-24T02:50:14;3.33;;;1.50;;
2408;SDS011;8463;48.094;7.970;2022-12-24T02:52:43;3.80;;;1.30;;
2408;SDS011;8463;48.094;7.970;2022-12-24T03:00:22;2.20;;;1.00;;
2408;SDS011;8463;48.094;7.970;2022-12-24T03:08:48;4.20;;;1.50;;
2408;SDS011;8463;48.094;7.970;2022-12-24T03:11:10;1.90;;;1.30;;
2408;SDS011;8463;48.094;7.970;2022-12-24T03:13:38;3.27;;;1.33;;
2408;SDS011;8463;48.094;7.970;2022-12-24T03:16:06;2.17;;;1.10;;
2408;SDS011;8463;48.094;7.970;2022-12-24T03:18:35;4.23;;;2.20;;
2408;SDS011;8463;48.094;7.970;2022-12-24T03:24:02;2.53;;;1.37;;
2408;SDS011;8463;48.094;7.970;2022-12-24T03:26:28;4.20;;;1.30;;
2408;SDS011;8463;48.094;7.970;2022-12-24T03:28:56;6.00;;;1.63;;
2408;SDS011;8463;48.094;7.970;2022-12-24T03:31:21;7.53;;;1.20;;
2408;SDS011;8463;48.094;7.970;2022-12-24T03:33:50;3.83;;;1.60;;
2408;SDS011;8463;48.094;7.970;2022-12-24T03:36:15;6.33;;;1.73;;
2408;SDS011;8463;48.094;7.970;2022-12-24T03:38:41;4.90;;;1.30;;
2408;SDS011;8463;48.094;7.970;2022-12-24T03:41:07;3.90;;;1.23;;
2408;SDS011;8463;48.094;7.970;2022-12-24T03:43:32;3.37;;;1.27;;
2408;SDS011;8463;48.094;7.970;2022-12-24T03:46:03;5.50;;;1.63;;
2408;SDS011;8463;48.094;7.970;2022-12-24T03:48:33;1.97;;;1.27;;
2408;SDS011;8463;48.094;7.970;2022-12-24T03:50:59;5.60;;;2.30;;
2408;SDS011;8463;48.094;7.970;2022-12-24T03:53:25;5.97;;;1.97;;
2408;SDS011;8463;48.094;7.970;2022-12-24T03:55:51;4.60;;;1.47;;
2408;SDS011;8463;48.094;7.970;2022-12-24T03:58:16;3.43;;;1.20;;
2408;SDS011;8463;48.094;7.970;2022-12-24T04:00:42;3.53;;;1.17;;
2408;SDS011;8463;48.094;7.970;2022-12-24T04:03:08;2.33;;;1.10;;
2408;SDS011;8463;48.094;7.970;2022-12-24T04:05:33;4.43;;;1.43;;
2408;SDS011;8463;48.094;7.970;2022-12-24T04:07:59;5.33;;;1.93;;
2408;SDS011;8463;48.094;7.970;2022-12-24T04:10:24;2.90;;;1.83;;
2408;SDS011;8463;48.094;7.970;2022-12-24T04:12:50;4.87;;;1.53;;
2408;SDS011;8463;48.094;7.970;2022-12-24T04:15:15;2.60;;;1.43;;
2408;SDS011;8463;48.094;7.970;2022-12-24T04:17:41;4.10;;;1.57;;
2408;SDS011;8463;48.094;7.970;2022-12-24T04:20:07;5.23;;;1.63;;
2408;SDS011;8463;48.094;7.970;2022-12-24T04:22:33;4.20;;;1.70;;
2408;SDS011;8463;48.094;7.970;2022-12-24T04:24:58;2.13;;;1.57;;
2408;SDS011;8463;48.094;7.970;2022-12-24T04:27:26;5.07;;;1.57;;
2408;SDS011;8463;48.094;7.970;2022-12-24T04:29:52;4.93;;;1.50;;
2408;SDS011;8463;48.094;7.970;2022-12-24T04:32:18;5.17;;;1.90;;
2408;SDS011;8463;48.094;7.970;2022-12-24T04:34:43;4.30;;;1.47;;
2408;SDS011;8463;48.094;7.970;2022-12-24T04:37:09;1.27;;;1.17;;
2408;SDS011;8463;48.094;7.970;2022-12-24T04:39:35;3.30;;;1.43;;
2408;SDS011;8463;48.094;7.970;2022-12-24T04:42:00;6.03;;;1.77;;
2408;SDS011;8463;48.094;7.970;2022-12-24T04:44:28;6.83;;;1.70;;
2408;SDS011;8463;48.094;7.970;2022-12-24T04:46:54;4.07;;;1.60;;
2408;SDS011;8463;48.094;7.970;2022-12-24T04:49:19;2.17;;;1.37;;
2408;SDS011;8463;48.094;7.970;2022-12-24T04:51:45;2.73;;;1.73;;
2408;SDS011;8463;48.094;7.970;2022-12-24T04:54:11;4.70;;;1.53;;
2408;SDS011;8463;48.094;7.970;2022-12-24T04:56:37;6.27;;;1.67;;
2408;SDS011;8463;48.094;7.970;2022-12-24T04:59:03;3.83;;;2.60;;
2408;SDS011;8463;48.094;7.970;2022-12-24T05:01:29;6.03;;;1.73;;
2408;SDS011;8463;48.094;7.970;2022-12-24T05:03:57;3.70;;;0.90;;
2408;SDS011;8463;48.094;7.970;2022-12-24T05:06:24;2.10;;;1.10;;
2408;SDS011;8463;48.094;7.970;2022-12-24T05:08:54;6.50;;;1.60;;
2408;SDS011;8463;48.094;7.970;2022-12-24T05:11:21;3.80;;;1.40;;
2408;SDS011;8463;48.094;7.970;2022-12-24T05:13:46;5.10;;;1.53;;
2408;SDS011;8463;48.094;7.970;2022-12-24T05:16:13;4.40;;;2.27;;
2408;SDS011;8463;48.094;7.970;2022-12-24T05:18:44;4.67;;;1.87;;
2408;SDS011;8463;48.094;7.970;2022-12-24T05:21:10;4.47;;;1.53;;
2408;SDS011;8463;48.094;7.970;2022-12-24T05:23:41;4.20;;;1.50;;
2408;SDS011;8463;48.094;7.970;2022-12-24T05:26:27;10.97;;;1.77;;
2408;SDS011;8463;48.094;7.970;2022-12-24T05:28:55;4.37;;;1.40;;
2408;SDS011;8463;48.094;7.970;2022-12-24T05:31:23;3.80;;;1.93;;
2408;SDS011;8463;48.094;7.970;2022-12-24T05:33:50;7.90;;;2.53;;
2408;SDS011;8463;48.094;7.970;2022-12-24T05:36:15;7.33;;;2.33;;
2408;SDS011;8463;48.094;7.970;2022-12-24T05:38:41;4.20;;;1.30;;
2408;SDS011;8463;48.094;7.970;2022-12-24T05:41:07;7.90;;;3.03;;
2408;SDS011;8463;48.094;7.970;2022-12-24T05:43:36;5.77;;;2.03;;
2408;SDS011;8463;48.094;7.970;2022-12-24T05:46:03;4.33;;;1.27;;
2408;SDS011;8463;48.094;7.970;2022-12-24T05:48:31;2.50;;;1.47;;
2408;SDS011;8463;48.094;7.970;2022-12-24T05:50:56;10.43;;;2.27;;
2408;SDS011;8463;48.094;7.970;2022-12-24T05:53:22;7.80;;;2.67;;
2408;SDS011;8463;48.094;7.970;2022-12-24T05:55:50;3.20;;;1.57;;
2408;SDS011;8463;48.094;7.970;2022-12-24T05:58:16;2.90;;;1.27;;
2408;SDS011;8463;48.094;7.970;2022-12-24T06:00:42;4.20;;;2.00;;
2408;SDS011;8463;48.094;7.970;2022-12-24T06:03:07;4.47;;;1.60;;
2408;SDS011;8463;48.094;7.970;2022-12-24T06:05:33;7.60;;;3.60;;
2408;SDS011;8463;48.094;7.970;2022-12-24T06:07:59;4.17;;;1.53;;
2408;SDS011;8463;48.094;7.970;2022-12-24T06:10:24;7.47;;;2.03;;
2408;SDS011;8463;48.094;7.970;2022-12-24T06:12:50;7.67;;;1.80;;
2408;SDS011;8463;48.094;7.970;2022-12-24T06:15:15;3.47;;;1.67;;
2408;SDS011;8463;48.094;7.970;2022-12-24T06:17:41;7.13;;;2.40;;
2408;SDS011;8463;48.094;7.970;2022-12-24T06:20:07;3.73;;;1.83;;
2408;SDS011;8463;48.094;7.970;2022-12-24T06:22:33;3.73;;;2.37;;
2408;SDS011;8463;48.094;7.970;2022-12-24T06:24:58;6.20;;;2.13;;
2408;SDS011;8463;48.094;7.970;2022-12-24T06:27:24;3.73;;;1.37;;
2408;SDS011;8463;48.094;7.970;2022-12-24T06:29:49;9.70;;;2.73;;
2408;SDS011;8463;48.094;7.970;2022-12-24T06:32:15;4.50;;;1.83;;
2408;SDS011;8463;48.094;7.970;2022-12-24T06:34:43;3.10;;;1.90;;
2408;SDS011;8463;48.094;7.970;2022-12-24T06:37:08;4.53;;;1.70;;
2408;SDS011;8463;48.094;7.970;2022-12-24T06:39:42;3.53;;;1.70;;
2408;SDS011;8463;48.094;7.970;2022-12-24T06:42:11;5.10;;;2.90;;
2408;SDS011;8463;48.094;7.970;2022-12-24T06:44:39;4.20;;;2.03;;
2408;SDS011;8463;48.094;7.970;2022-12-24T06:47:05;8.60;;;1.80;;
2408;SDS011;8463;48.094;7.970;2022-12-24T06:49:30;8.17;;;2.17;;
2408;SDS011;8463;48.094;7.970;2022-12-24T06:51:56;8.67;;;2.20;;
2408;SDS011;8463;48.094;7.970;2022-12-24T06:54:24;5.53;;;3.87;;
2408;SDS011;8463;48.094;7.970;2022-12-24T06:56:50;11.03;;;3.33;;
2408;SDS011;8463;48.094;7.970;2022-12-24T06:59:15;6.70;;;1.70;;
2408;SDS011;8463;48.094;7.970;2022-12-24T07:01:41;6.30;;;1.60;;
2408;SDS011;8463;48.094;7.970;2022-12-24T07:04:06;8.83;;;1.60;;
2408;SDS011;8463;48.094;7.970;2022-12-24T07:06:32;5.00;;;1.70;;
2408;SDS011;8463;48.094;7.970;2022-12-24T07:08:57;6.03;;;2.30;;
2408;SDS011;8463;48.094;7.970;2022-12-24T07:11:23;7.83;;;2.03;;
2408;SDS011;8463;48.094;7.970;2022-12-24T07:13:50;6.40;;;2.30;;
2408;SDS011;8463;48.094;7.970;2022-12-24T07:16:16;5.20;;;2.53;;
2408;SDS011;8463;48.094;7.970;2022-12-24T07:18:42;8.37;;;2.30;;
2408;SDS011;8463;48.094;7.970;2022-12-24T07:21:07;6.77;;;2.00;;
2408;SDS011;8463;48.094;7.970;2022-12-24T07:23:33;4.40;;;1.80;;
2408;SDS011;8463;48.094;7.970;2022-12-24T07:25:59;4.90;;;2.70;;
2408;SDS011;8463;48.094;7.970;2022-12-24T07:28:26;6.43;;;2.90;;
2408;SDS011;8463;48.094;7.970;2022-12-24T07:30:52;5.37;;;2.30;;
2408;SDS011;8463;48.094;7.970;2022-12-24T07:33:18;6.10;;;2.33;;
2408;SDS011;8463;48.094;7.970;2022-12-24T07:35:44;4.33;;;1.03;;
2408;SDS011;8463;48.094;7.970;2022-12-24T07:38:09;5.53;;;1.57;;
2408;SDS011;8463;48.094;7.970;2022-12-24T07:40:35;7.83;;;1.70;;
2408;SDS011;8463;48.094;7.970;2022-12-24T07:43:01;3.60;;;1.63;;
2408;SDS011;8463;48.094;7.970;2022-12-24T07:45:26;5.23;;;2.43;;
2408;SDS011;8463;48.094;7.970;2022-12-24T07:47:52;8.00;;;2.47;;
2408;SDS011;8463;48.094;7.970;2022-12-24T07:50:17;5.20;;;1.80;;
2408;SDS011;8463;48.094;7.970;2022-12-24T07:52:43;5.00;;;2.60;;
2408;SDS011;8463;48.094;7.970;2022-12-24T07:55:09;7.50;;;3.20;;
2408;SDS011;8463;48.094;7.970;2022-12-24T07:57:34;8.23;;;2.77;;
2408;SDS011;8463;48.094;7.970;2022-12-24T08:00:00;8.87;;;4.07;;
2408;SDS011;8463;48.094;7.970;2022-12-24T08:02:25;5.63;;;3.43;;
2408;SDS011;8463;48.094;7.970;2022-12-24T08:04:51;7.57;;;3.63;;
2408;SDS011;8463;48.094;7.970;2022-12-24T08:07:16;7.90;;;2.10;;
2408;SDS011;8463;48.094;7.970;2022-12-24T08:09:42;7.07;;;4.50;;
2408;SDS011;8463;48.094;7.970;2022-12-24T08:12:09;7.00;;;4.30;;
2408;SDS011;8463;48.094;7.970;2022-12-24T08:14:36;10.97;;;6.00;;
2408;SDS011;8463;48.094;7.970;2022-12-24T08:17:01;7.60;;;3.30;;
2408;SDS011;8463;48.094;7.970;2022-12-24T08:19:27;17.10;;;8.83;;
2408;SDS011;8463;48.094;7.970;2022-12-24T08:21:52;7.47;;;2.77;;
2408;SDS011;8463;48.094;7.970;2022-12-24T08:24:18;9.07;;;2.90;;
2408;SDS011;8463;48.094;7.970;2022-12-24T08:26:44;5.53;;;3.33;;
2408;SDS011;8463;48.094;7.970;2022-12-24T08:29:09;7.90;;;2.70;;
2408;SDS011;8463;48.094;7.970;2022-12-24T08:31:35;8.20;;;2.07;;
2408;SDS011;8463;48.094;7.970;2022-12-24T08:34:02;4.70;;;2.10;;
2408;SDS011;8463;48.094;7.970;2022-12-24T08:36:29;7.60;;;2.23;;
2408;SDS011;8463;48.094;7.970;2022-12-24T08:38:54;5.07;;;1.67;;
2408;SDS011;8463;48.094;7.970;2022-12-24T08:41:20;9.03;;;2.77;;
2408;SDS011;8463;48.094;7.970;2022-12-24T08:43:46;6.73;;;2.50;;
2408;SDS011;8463;48.094;7.970;2022-12-24T08:46:11;7.53;;;2.37;;
2408;SDS011;8463;48.094;7.970;2022-12-24T08:48:37;7.73;;;2.53;;
2408;SDS011;8463;48.094;7.970;2022-12-24T08:51:08;7.53;;;2.60;;
2408;SDS011;8463;48.094;7.970;2022-12-24T08:53:35;5.83;;;1.70;;
2408;SDS011;8463;48.094;7.970;2022-12-24T08:56:02;9.77;;;2.37;;
2408;SDS011;8463;48.094;7.970;2022-12-24T08:58:32;7.60;;;2.50;;
2408;SDS011;8463;48.094;7.970;2022-12-24T09:00:58;4.80;;;2.07;;
2408;SDS011;8463;48.094;7.970;2022-12-24T09:03:23;4.17;;;1.93;;
2408;SDS011;8463;48.094;7.970;2022-12-24T09:05:50;6.33;;;1.77;;
2408;SDS011;8463;48.094;7.970;2022-12-24T09:08:17;5.67;;;2.27;;
2408;SDS011;8463;48.094;7.970;2022-12-24T09:10:43;8.73;;;2.57;;
2408;SDS011;8463;48.094;7.970;2022-12-24T09:13:09;5.90;;;2.33;;
2408;SDS011;8463;48.094;7.970;2022-12-24T09:15:34;10.40;;;2.70;;
2408;SDS011;8463;48.094;7.970;2022-12-24T09:18:02;5.30;;;2.83;;
2408;SDS011;8463;48.094;7.970;2022-12-24T09:20:28;6.20;;;2.53;;
2408;SDS011;8463;48.094;7.970;2022-12-24T09:22:54;3.93;;;2.00;;
2408;SDS011;8463;48.094;7.970;2022-12-24T09:25:19;4.27;;;2.03;;
2408;SDS011;8463;48.094;7.970;2022-12-24T09:27:45;6.13;;;1.83;;
2408;SDS011;8463;48.094;7.970;2022-12-24T09:30:11;4.30;;;2.40;;
2408;SDS011;8463;48.094;7.970;2022-12-24T09:32:39;12.73;;;2.60;;
2408;SDS011;8463;48.094;7.970;2022-12-24T09:35:05;7.00;;;4.50;;
2408;SDS011;8463;48.094;7.970;2022-12-24T09:37:31;6.40;;;2.00;;
2408;SDS011;8463;48.094;7.970;2022-12-24T09:39:56;4.83;;;1.57;;
2408;SDS011;8463;48.094;7.970;2022-12-24T09:45:17;6.93;;;2.20;;
2408;SDS011;8463;48.094;7.970;2022-12-24T09:47:49;5.47;;;2.27;;
2408;SDS011;8463;48.094;7.970;2022-12-24T09:52:52;6.40;;;2.17;;
2408;SDS011;8463;48.094;7.970;2022-12-24T09:55:22;7.37;;;1.60;;
2408;SDS011;8463;48.094;7.970;2022-12-24T09:57:52;5.13;;;1.67;;
2408;SDS011;8463;48.094;7.970;2022-12-24T10:00:21;6.50;;;2.73;;
2408;SDS011;8463;48.094;7.970;2022-12-24T10:02:57;5.27;;;2.23;;
2408;SDS011;8463;48.094;7.970;2022-12-24T10:05:28;3.40;;;1.90;;
2408;SDS011;8463;48.094;7.970;2022-12-24T10:10:59;6.00;;;1.60;;
2408;SDS011;8463;48.094;7.970;2022-12-24T10:18:49;3.70;;;1.97;;
2408;SDS011;8463;48.094;7.970;2022-12-24T10:24:10;3.47;;;1.90;;
2408;SDS011;8463;48.094;7.970;2022-12-24T10:27:01;5.40;;;1.70;;
2408;SDS011;8463;48.094;7.970;2022-12-24T10:29:35;5.70;;;2.73;;
2408;SDS011;8463;48.094;7.970;2022-12-24T10:34:32;4.00;;;2.57;;
2408;SDS011;8463;48.094;7.970;2022-12-24T10:37:04;5.63;;;2.73;;
2408;SDS011;8463;48.094;7.970;2022-12-24T10:39:29;2.40;;;1.60;;
2408;SDS011;8463;48.094;7.970;2022-12-24T10:41:58;3.60;;;1.33;;
2408;SDS011;8463;48.094;7.970;2022-12-24T10:44:26;4.37;;;1.53;;
2408;SDS011;8463;48.094;7.970;2022-12-24T10:46:54;3.80;;;1.30;;
2408;SDS011;8463;48.094;7.970;2022-12-24T10:52:20;5.70;;;1.60;;
2408;SDS011;8463;48.094;7.970;2022-12-24T10:57:35;1.70;;;1.60;;
2408;SDS011;8463;48.094;7.970;2022-12-24T11:00:01;1.77;;;0.80;;
2408;SDS011;8463;48.094;7.970;2022-12-24T11:05:02;6.17;;;1.20;;
2408;SDS011;8463;48.094;7.970;2022-12-24T11:07:30;4.47;;;0.97;;
2408;SDS011;8463;48.094;7.970;2022-12-24T11:09:58;4.10;;;1.07;;
2408;SDS011;8463;48.094;7.970;2022-12-24T11:12:27;1.53;;;1.20;;
2408;SDS011;8463;48.094;7.970;2022-12-24T11:15:37;2.70;;;2.20;;
2408;SDS011;8463;48.094;7.970;2022-12-24T11:17:53;1.00;;;0.80;;
2408;SDS011;8463;48.094;7.970;2022-12-24T11:20:20;2.90;;;1.23;;
2408;SDS011;8463;48.094;7.970;2022-12-24T11:22:50;3.43;;;0.97;;
2408;SDS011;8463;48.094;7.970;2022-12-24T11:25:20;3.30;;;1.00;;
2408;SDS011;8463;48.094;7.970;2022-12-24T11:27:49;2.47;;;0.90;;
2408;SDS011;8463;48.094;7.970;2022-12-24T11:35:10;3.30;;;1.23;;
2408;SDS011;8463;48.094;7.970;2022-12-24T11:37:41;1.27;;;0.80;;
2408;SDS011;8463;48.094;7.970;2022-12-24T11:40:16;1.77;;;0.90;;
2408;SDS011;8463;48.094;7.970;2022-12-24T11:42:45;3.17;;;1.10;;
2408;SDS011;8463;48.094;7.970;2022-12-24T11:45:27;1.47;;;1.00;;
2408;SDS011;8463;48.094;7.970;2022-12-24T11:47:54;4.20;;;1.23;;
2408;SDS011;8463;48.094;7.970;2022-12-24T11:50:22;3.80;;;0.90;;
2408;SDS011;8463;48.094;7.970;2022-12-24T11:55:44;6.33;;;1.40;;
2408;SDS011;8463;48.094;7.970;2022-12-24T12:07:14;2.20;;;1.20;;
2408;SDS011;8463;48.094;7.970;2022-12-24T12:09:49;1.93;;;1.20;;
2408;SDS011;8463;48.094;7.970;2022-12-24T12:12:21;1.53;;;0.90;;
2408;SDS011;8463;48.094;7.970;2022-12-24T12:14:49;1.80;;;1.00;;
2408;SDS011;8463;48.094;7.970;2022-12-24T12:17:29;3.50;;;1.33;;
2408;SDS011;8463;48.094;7.970;2022-12-24T12:20:03;2.03;;;1.43;;
2408;SDS011;8463;48.094;7.970;2022-12-24T12:25:18;2.80;;;0.93;;
2408;SDS011;8463;48.094;7.970;2022-12-24T12:28:07;3.40;;;0.87;;
2408;SDS011;8463;48.094;7.970;2022-12-24T12:30:44;2.17;;;1.10;;
2408;SDS011;8463;48.094;7.970;2022-12-24T12:33:31;3.10;;;1.23;;
2408;SDS011;8463;48.094;7.970;2022-12-24T12:36:11;3.80;;;1.97;;
2408;SDS011;8463;48.094;7.970;2022-12-24T12:38:42;2.63;;;1.60;;
2408;SDS011;8463;48.094;7.970;2022-12-24T12:41:26;1.87;;;1.30;;
2408;SDS011;8463;48.094;7.970;2022-12-24T12:55:17;5.07;;;1.30;;
2408;SDS011;8463;48.094;7.970;2022-12-24T12:57:46;1.73;;;1.40;;
2408;SDS011;8463;48.094;7.970;2022-12-24T13:00:15;4.57;;;1.17;;
2408;SDS011;8463;48.094;7.970;2022-12-24T13:19:11;1.73;;;1.17;;
2408;SDS011;8463;48.094;7.970;2022-12-24T13:21:43;1.23;;;1.03;;
2408;SDS011;8463;48.094;7.970;2022-12-24T13:24:22;3.10;;;1.00;;
2408;SDS011;8463;48.094;7.970;2022-12-24T13:34:46;3.20;;;1.07;;
2408;SDS011;8463;48.094;7.970;2022-12-24T13:42:47;2.20;;;1.30;;
2408;SDS011;8463;48.094;7.970;2022-12-24T13:48:39;2.50;;;1.10;;
2408;SDS011;8463;48.094;7.970;2022-12-24T13:56:19;3.23;;;2.70;;
2408;SDS011;8463;48.094;7.970;2022-12-24T13:58:54;1.80;;;1.33;;
2408;SDS011;8463;48.094;7.970;2022-12-24T14:01:44;3.23;;;2.30;;
2408;SDS011;8463;48.094;7.970;2022-12-24T14:04:19;1.57;;;1.40;;
2408;SDS011;8463;48.094;7.970;2022-12-24T14:06:53;2.80;;;1.57;;
2408;SDS011;8463;48.094;7.970;2022-12-24T14:09:21;3.33;;;1.50;;
2408;SDS011;8463;48.094;7.970;2022-12-24T14:14:33;3.03;;;1.87;;
2408;SDS011;8463;48.094;7.970;2022-12-24T14:19:55;6.57;;;1.80;;
2408;SDS011;8463;48.094;7.970;2022-12-24T14:22:39;4.80;;;2.10;;
2408;SDS011;8463;48.094;7.970;2022-12-24T14:25:15;4.63;;;1.60;;
2408;SDS011;8463;48.094;7.970;2022-12-24T14:27:57;6.30;;;2.60;;
2408;SDS011;8463;48.094;7.970;2022-12-24T14:30:30;2.50;;;1.77;;
2408;SDS011;8463;48.094;7.970;2022-12-24T14:32:56;2.60;;;1.67;;
2408;SDS011;8463;48.094;7.970;2022-12-24T14:35:23;4.53;;;2.10;;
2408;SDS011;8463;48.094;7.970;2022-12-24T14:40:27;4.10;;;2.37;;
2408;SDS011;8463;48.094;7.970;2022-12-24T14:45:54;3.03;;;2.20;;
2408;SDS011;8463;48.094;7.970;2022-12-24T14:48:37;3.80;;;2.20;;
2408;SDS011;8463;48.094;7.970;2022-12-24T14:51:25;5.90;;;2.37;;
2408;SDS011;8463;48.094;7.970;2022-12-24T14:54:01;4.57;;;3.07;;
2408;SDS011;8463;48.094;7.970;2022-12-24T14:56:35;5.20;;;2.50;;
2408;SDS011;8463;48.094;7.970;2022-12-24T14:59:12;8.87;;;3.50;;
2408;SDS011;8463;48.094;7.970;2022-12-24T15:01:43;4.43;;;2.63;;
2408;SDS011;8463;48.094;7.970;2022-12-24T15:06:42;2.33;;;2.10;;
2408;SDS011;8463;48.094;7.970;2022-12-24T15:09:16;3.00;;;2.40;;
2408;SDS011;8463;48.094;7.970;2022-12-24T15:11:50;9.07;;;4.40;;
2408;SDS011;8463;48.094;7.970;2022-12-24T15:14:20;5.90;;;3.63;;
2408;SDS011;8463;48.094;7.970;2022-12-24T15:16:55;11.63;;;6.87;;
2408;SDS011;8463;48.094;7.970;2022-12-24T15:19:38;8.70;;;5.03;;
2408;SDS011;8463;48.094;7.970;2022-12-24T15:22:26;6.33;;;4.00;;
2408;SDS011;8463;48.094;7.970;2022-12-24T15:24:54;10.43;;;4.30;;
2408;SDS011;8463;48.094;7.970;2022-12-24T15:27:21;7.27;;;4.90;;
2408;SDS011;8463;48.094;7.970;2022-12-24T15:29:50;7.93;;;5.13;;
2408;SDS011;8463;48.094;7.970;2022-12-24T15:32:18;8.23;;;5.53;;
2408;SDS011;8463;48.094;7.970;2022-12-24T15:34:46;4.83;;;4.40;;
2408;SDS011;8463;48.094;7.970;2022-12-24T15:37:23;6.27;;;5.20;;
2408;SDS011;8463;48.094;7.970;2022-12-24T15:39:54;5.07;;;3.07;;
2408;SDS011;8463;48.094;7.970;2022-12-24T15:42:29;5.53;;;2.93;;
2408;SDS011;8463;48.094;7.970;2022-12-24T15:45:00;6.97;;;2.43;;
2408;SDS011;8463;48.094;7.970;2022-12-24T15:47:32;4.40;;;2.20;;
2408;SDS011;8463;48.094;7.970;2022-12-24T15:50:14;3.00;;;2.10;;
2408;SDS011;8463;48.094;7.970;2022-12-24T15:52:42;3.37;;;1.90;;
2408;SDS011;8463;48.094;7.970;2022-12-24T15:55:30;9.00;;;3.23;;
2408;SDS011;8463;48.094;7.970;2022-12-24T15:57:56;8.97;;;4.70;;
2408;SDS011;8463;48.094;7.970;2022-12-24T16:00:23;5.63;;;3.03;;
2408;SDS011;8463;48.094;7.970;2022-12-24T16:02:54;10.50;;;6.93;;
2408;SDS011;8463;48.094;7.970;2022-12-24T16:05:41;11.13;;;4.07;;
2408;SDS011;8463;48.094;7.970;2022-12-24T16:15:48;7.37;;;5.20;;
2408;SDS011;8463;48.094;7.970;2022-12-24T16:18:15;7.73;;;5.17;;
2408;SDS011;8463;48.094;7.970;2022-12-24T16:20:47;6.03;;;4.73;;
2408;SDS011;8463;48.094;7.970;2022-12-24T16:23:17;5.33;;;3.33;;
2408;SDS011;8463;48.094;7.970;2022-12-24T16:25:44;5.63;;;2.70;;
2408;SDS011;8463;48.094;7.970;2022-12-24T16:28:10;4.40;;;2.13;;
2408;SDS011;8463;48.094;7.970;2022-12-24T16:30:37;3.00;;;2.03;;
2408;SDS011;8463;48.094;7.970;2022-12-24T16:33:03;3.93;;;1.30;;
2408;SDS011;8463;48.094;7.970;2022-12-24T16:35:30;2.20;;;1.57;;
2408;SDS011;8463;48.094;7.970;2022-12-24T16:38:00;1.80;;;1.33;;
2408;SDS011;8463;48.094;7.970;2022-12-24T16:40:27;3.17;;;1.40;;
2408;SDS011;8463;48.094;7.970;2022-12-24T16:42:54;6.20;;;1.30;;
2408;SDS011;8463;48.094;7.970;2022-12-24T16:45:39;2.30;;;1.67;;
2408;SDS011;8463;48.094;7.970;2022-12-24T16:48:06;7.07;;;3.13;;
2408;SDS011;8463;48.094;7.970;2022-12-24T16:50:33;2.70;;;1.80;;
2408;SDS011;8463;48.094;7.970;2022-12-24T16:52:59;4.10;;;2.00;;
2408;SDS011;8463;48.094;7.970;2022-12-24T16:55:27;5.03;;;1.50;;
2408;SDS011;8463;48.094;7.970;2022-12-24T16:57:53;1.90;;;1.10;;
2408;SDS011;8463;48.094;7.970;2022-12-24T17:00:20;2.60;;;1.60;;
2408;SDS011;8463;48.094;7.970;2022-12-24T17:02:47;2.90;;;1.53;;
2408;SDS011;8463;48.094;7.970;2022-12-24T17:05:13;2.50;;;1.07;;
2408;SDS011;8463;48.094;7.970;2022-12-24T17:07:40;3.90;;;2.17;;
2408;SDS011;8463;48.094;7.970;2022-12-24T17:10:12;3.93;;;1.93;;
2408;SDS011;8463;48.094;7.970;2022-12-24T17:12:38;5.10;;;1.90;;
2408;SDS011;8463;48.094;7.970;2022-12-24T17:15:04;5.93;;;1.90;;
2408;SDS011;8463;48.094;7.970;2022-12-24T17:17:30;6.50;;;1.60;;
2408;SDS011;8463;48.094;7.970;2022-12-24T17:19:56;3.23;;;2.47;;
2408;SDS011;8463;48.094;7.970;2022-12-24T17:22:22;2.60;;;1.70;;
2408;SDS011;8463;48.094;7.970;2022-12-24T17:24:51;6.43;;;2.10;;
2408;SDS011;8463;48.094;7.970;2022-12-24T17:27:19;2.70;;;1.67;;
2408;SDS011;8463;48.094;7.970;2022-12-24T17:29:44;9.60;;;5.20;;
2408;SDS011;8463;48.094;7.970;2022-12-24T17:32:10;8.63;;;5.00;;
2408;SDS011;8463;48.094;7.970;2022-12-24T17:34:36;4.87;;;3.20;;
2408;SDS011;8463;48.094;7.970;2022-12-24T17:37:02;5.20;;;2.40;;
2408;SDS011;8463;48.094;7.970;2022-12-24T17:39:27;8.17;;;2.93;;
2408;SDS011;8463;48.094;7.970;2022-12-24T17:41:53;9.47;;;3.43;;
2408;SDS011;8463;48.094;7.970;2022-12-24T17:44:18;8.57;;;4.13;;
2408;SDS011;8463;48.094;7.970;2022-12-24T17:46:44;10.80;;;6.77;;
2408;SDS011;8463;48.094;7.970;2022-12-24T17:49:10;9.83;;;4.30;;
2408;SDS011;8463;48.094;7.970;2022-12-24T17:51:36;8.67;;;6.80;;